METAR Data
IDs: Format: Raw Decoded Include TAF

Data at: 0941 UTC 21 Oct 2019

Region: TOP
KATL 210852Z 00000KT 10SM FEW180 FEW250 15/13 A2996 RMK AO2 SLP138 T01500133 58010

KBOS 210854Z 01007KT 10SM FEW022 OVC060 13/09 A3005 RMK AO2 SLP175 T01280089 53001

KBWI 210854Z 33006KT 7SM OVC012 13/11 A3002 RMK AO2 SLP164 T01280106 53012

KCLE 210851Z 00000KT 10SM BKN065 12/09 A2997 RMK AO2 SLP147 T01220094 58012 $

KCLT 210852Z 17003KT 10SM FEW250 14/13 A3003 RMK AO2 SLP162 T01440128 53008

KCVG 210929Z 13009KT 10SM OVC005 14/13 A2989 RMK AO2 CIG 004V007 THN SPTS INOVC T01440128

KDCA 210905Z 35009KT 10SM OVC015 13/11 A3004 RMK AO2 T01280106

KDEN 210853Z 34006KT 10SM FEW100 FEW160 01/M07 A2991 RMK AO2 SLP113 T00061067 55000

KDFW 210853Z 31007KT 10SM FEW040 SCT130 OVC220 17/09 A2973 RMK AO2 SLP060 OCNL LTGICCC DSNT E-S CB DSNT E-S 60076 T01720094 51036

KDTW 210853Z 04005KT 7SM BKN070 10/07 A2995 RMK AO2 SLP141 T01000072 58008 $

KEWR 210851Z 02006KT 10SM FEW030 10/09 A3000 RMK AO2 SLP157 60000 T01000089 53008 $

KFLL 210853Z 00000KT 10SM CLR 26/24 A2995 RMK AO2 SLP140 T02610244 55003 $

KIAD 210852Z 35012KT 10SM OVC013 12/09 A3004 RMK AO2 SLP170 T01220094 53008 $

KIAH 210853Z 17005KT 10SM BKN018 BKN100 BKN250 27/24 A2969 RMK AO2 LTG DSNT W AND NW SLP054 CB DSNT W-NW T02670239 56014

KJFK 210751Z 02011KT 10SM OVC033 12/11 A2998 RMK AO2 SLP151 T01170106

KLAS 210856Z 18004KT 10SM FEW250 14/M09 A3005 RMK AO2 SLP164 T01391089 53000 $

KLAX 210853Z 04003KT 10SM CLR 23/03 A2993 RMK AO2 SLP133 T02280033 51004 $

KLGA 210851Z 02009KT 10SM FEW030 11/08 A2999 RMK AO2 SLP155 T01110083 53004

KMCO 210853Z 01005KT 10SM BKN075 24/21 A2995 RMK AO2 SLP139 T02390206 56008

KMDW 210853Z 10005KT 7SM OVC075 12/11 A2977 RMK AO2 SLP080 T01220106 58026

KMEM 210854Z 18013KT 10SM BKN016 OVC250 22/20 A2968 RMK AO2 SLP047 T02220200 56018 $

KMIA 210853Z 00000KT 10SM FEW095 26/24 A2995 RMK AO2 SLP143 T02610239 55005 $

KMSP 210853Z 10014G27KT 10SM SCT055 SCT080 OVC095 13/03 A2962 RMK AO2 PK WND 12033/0837 RAB28E45 SLP029 P0000 60000 T01330033 56036 $

KORD 210851Z 08005KT 6SM BR FEW005 BKN080 OVC250 11/11 A2977 RMK AO2 SLP081 T01110106 58026

KPDX 210853Z 08005KT 10SM FEW055 OVC120 12/09 A3020 RMK AO2 SLP224 T01170094 51014

KPHL 210930Z 34008KT 10SM SCT026 BKN100 BKN200 11/08 A3002 RMK AO2 T01110083

KPHX 210851Z 24005KT 10SM CLR 18/M09 A2991 RMK AO2 SLP114 T01781089 53007

KPIT 210851Z 00000KT 9SM FEW250 08/06 A3001 RMK AO2 SLP167 T00780061 53002

KSAN 210851Z 00000KT 10SM CLR 17/13 A2994 RMK AO2 SLP138 T01670133 51003

KSEA 210853Z 19009KT 10SM BKN018 OVC027 12/08 A3013 RMK AO2 SLP209 T01170078 51017 $

KSFO 210856Z 23003KT 10SM CLR 13/10 A3012 RMK AO2 SLP198 T01330100 58004

KSLC 210854Z 15005KT 10SM BKN065 BKN080 07/M03 A3010 RMK AO2 SLP182 T00671033 56007

KSTL 210934Z 14017G24KT 6SM TSRA BR SCT013 BKN024CB OVC050 17/15 A2949 RMK AO2 PK WND 14029/0915 LTG DSNT ALQDS OCNL LTGICCG ALQDS TS ALQDS MOV NE P0010 T01670150

KTPA 210853Z 07004KT 10SM OVC080 24/20 A2995 RMK AO2 SLP140 T02390200 55005